Rechercher aéroport 
image banner adimage banner adimage banner ad
image banner ad

94CL - Loma Linda University Medical Center

Situé à Loma Linda, United States

ICAO - 94CL, IATA -

Données fournies par Airmate  

Information générale

Coordonnées: N34°3'1" W117°15'51"
Élévation : 1223 feet MSL.
Variation magnétique : 14° East
Voir autres Aéroports à California

Données opérationnelles

Special qualification required
Heure actuelle UTC:
Heure actuelle locale:
Météo à : KSBD - San Bernardino Intl ( 6 km )
METAR: KSBD 292351Z 27013G17KT 10SM FEW150 37/08 A2984
TAF: KSBD 292325Z 3000/3024 26011KT P6SM FEW100 FM300400 VRB05KT P6SM SCT150 FM302100 25011KT P6SM SCT150
Voir NOTAMs / SUP AIP / TFR affectant cet aéroport [VIEW]
Fréquences de communication: [VIEW]

Pistes:

Coordonnées de l'aéroport

Adresse: Loma Linda United States

Vue satellite de 94CL